Flight Track Log - Related Links

Times and Time Zones

All times are in EDT time to prevent confusion due to time zone crossing. See the EJA831 flight status page for this flight to view local times or setup timezone preferences in your user account.

Time Position Orientation Groundspeed Altitude Reporting Facility
EDT Latitude Longitude Course Direction KTS MPH feet Rate Location/Type
Sat 03:59:58 PM 32.8667 -96.8667 320° Northwest 194 223 1,700  Level Dallas / Fort Worth TRACON
Sat 04:00:34 PM 32.8833 -96.8833 320° Northwest 214 246 3,400 3,188 Climbing Dallas / Fort Worth TRACON
Sat 04:01:34 PM 32.8833 -96.8333 90° East 245 282 6,800 2,942 Climbing Dallas / Fort Worth TRACON
Sat 04:03:09 PM 32.8581 -96.7125 104° East 243 280 11,000 2,537 Climbing Houston Center
Sat 04:04:03 PM 32.8372 -96.6369 108° East 271 312 13,100 2,474 Climbing Fort Worth Center
Sat 04:05:03 PM 32.8117 -96.5333 106° East 285 328 15,700 2,000 Climbing Fort Worth Center
Sat 04:06:03 PM 32.7900 -96.4422 106° East 305 351 17,100 1,600 Climbing Fort Worth Center
Sat 04:07:03 PM 32.7597 -96.3214 107° East 331 381 18,900 1,650 Climbing Fort Worth Center
Sat 04:08:03 PM 32.7422 -96.2181 101° East 350 403 20,400 1,600 Climbing Fort Worth Center
Sat 04:09:03 PM 32.7242 -96.0897 99° East 355 409 22,100 1,400 Climbing Fort Worth Center
Sat 04:10:03 PM 32.7061 -95.9764 101° East 373 429 23,200 1,300 Climbing Fort Worth Center
Sat 04:11:03 PM 32.6817 -95.8336 101° East 388 447 24,700 1,300 Climbing Fort Worth Center
Sat 04:12:03 PM 32.6611 -95.7058 101° East 393 452 25,800 1,150 Climbing Fort Worth Center
Sat 04:13:03 PM 32.6633 -95.5750 89° East 393 452 27,000 1,200 Climbing Fort Worth Center
Sat 04:14:03 PM 32.6719 -95.4439 86° East 393 452 28,200 1,050 Climbing Fort Worth Center
Sat 04:15:03 PM 32.6781 -95.3131 87° East 393 452 29,100 900 Climbing Fort Worth Center
Sat 04:16:03 PM 32.6844 -95.1919 86° East 393 452 30,000 1,150 Climbing Fort Worth Center
Sat 04:17:03 PM 32.6944 -95.0583 85° East 404 465 31,400 1,350 Climbing Fort Worth Center
Sat 04:18:03 PM 32.7022 -94.9225 86° East 404 465 32,700 1,350 Climbing Fort Worth Center
Sat 04:19:03 PM 32.7017 -94.7867 90° East 404 465 34,100 1,400 Climbing Fort Worth Center
Sat 04:20:03 PM 32.6656 -94.6594 109° East 404 465 35,500 1,350 Climbing Fort Worth Center
Sat 04:21:03 PM 32.6186 -94.5278 113° Southeast 424 488 36,800 1,250 Climbing Fort Worth Center
Sat 04:22:03 PM 32.5761 -94.4008 112° Southeast 431 496 38,000 1,200 Climbing Fort Worth Center
Sat 04:23:03 PM 32.5333 -94.2767 112° Southeast 425 489 39,200 1,100 Climbing Fort Worth Center
Sat 04:24:03 PM 32.4906 -94.1475 111° Southeast 420 483 40,200 900 Climbing Fort Worth Center
Sat 04:25:03 PM 32.4475 -94.0261 113° Southeast 415 478 41,000 400 Climbing Fort Worth Center
Sat 04:26:03 PM 32.4025 -93.8997 113° Southeast 415 478 41,000  Level Fort Worth Center
Sat 04:27:03 PM 32.3589 -93.7661 111° Southeast 420 483 41,000  Level Fort Worth Center
Sat 04:28:03 PM 32.3131 -93.6281 111° Southeast 430 495 41,000  Level Fort Worth Center
Sat 04:29:50 PM 32.2258 -93.3817 113° Southeast 458 527 41,000  Level Houston Center
Sat 04:30:51 PM 32.1761 -93.2403 113° Southeast 463 533 41,000  Level Houston Center
Sat 04:31:53 PM 32.1261 -93.0994 113° Southeast 465 535 41,000  Level Houston Center
Sat 04:32:55 PM 32.0761 -92.9608 113° Southeast 461 531 41,000  Level Houston Center
Sat 04:33:56 PM 32.0247 -92.8183 113° Southeast 466 536 41,000  Level Houston Center
Sat 04:34:58 PM 31.9739 -92.6781 113° Southeast 466 536 41,000  Level Houston Center
Sat 04:36:00 PM 31.9356 -92.5339 107° East 464 534 41,000  Level Houston Center
Sat 04:37:01 PM 31.8897 -92.3603 107° East 463 533 41,000  Level Houston Center
Sat 04:38:03 PM 31.8500 -92.2175 108° East 460 529 41,000  Level Houston Center
Sat 04:39:05 PM 31.8131 -92.0756 107° East 457 526 41,000  Level Houston Center
Sat 04:40:06 PM 31.7728 -91.9283 108° East 463 533 41,000  Level Houston Center
Sat 04:41:08 PM 31.7333 -91.7867 108° East 457 526 41,000  Level Houston Center
Sat 04:42:10 PM 31.6947 -91.6442 108° East 456 525 41,000  Level Houston Center
Sat 04:43:12 PM 31.6553 -91.5017 108° East 458 527 41,000  Level Houston Center
Sat 04:44:13 PM 31.6172 -91.3603 108° East 455 524 41,000  Level Houston Center
Sat 04:45:15 PM 31.5700 -91.1900 108° East 457 526 41,000  Level Houston Center
Sat 04:46:17 PM 31.5319 -91.0597 109° East 457 526 41,000  Level Houston Center
Sat 04:47:19 PM 31.4928 -90.9189 108° East 455 524 41,000  Level Houston Center
Sat 04:48:20 PM 31.4586 -90.7772 106° East 454 522 41,000  Level Houston Center
Sat 04:49:22 PM 31.4283 -90.6336 104° East 454 522 41,000  Level Houston Center
Sat 04:50:24 PM 31.3936 -90.4628 103° East 451 519 41,000  Level Houston Center
Sat 04:51:25 PM 31.3628 -90.3200 104° East 451 519 41,000  Level Houston Center
Sat 04:52:27 PM 31.3331 -90.1778 104° East 451 519 41,000  Level Houston Center
Sat 04:53:29 PM 31.3028 -90.0344 104° East 453 521 41,000  Level Houston Center
Sat 04:54:31 PM 31.2711 -89.8922 105° East 453 521 41,000  Level Houston Center
Sat 04:55:32 PM 31.2411 -89.7489 104° East 453 521 41,000  Level Houston Center
Sat 04:56:34 PM 31.2100 -89.6053 104° East 455 524 41,000  Level Houston Center
Sat 04:57:36 PM 31.1794 -89.4639 104° East 451 519 41,000  Level Houston Center
Sat 04:58:37 PM 31.1406 -89.2911 105° East 457 526 41,000  Level Houston Center
Sat 04:59:39 PM 31.1086 -89.1453 104° East 463 533 41,000  Level Houston Center
Sat 05:00:41 PM 31.0761 -89.0022 105° East 457 526 41,000  Level Houston Center
Sat 05:01:42 PM 31.0453 -88.8700 105° East 459 528 41,000  Level Houston Center
Sat 05:02:44 PM 31.0058 -88.6975 105° East 462 532 41,000  Level Houston Center
Sat 05:03:46 PM 30.9783 -88.5669 104° East 463 533 41,000  Level Houston Center
Sat 05:04:47 PM 30.9447 -88.4239 105° East 457 526 41,000  Level Houston Center
Sat 05:05:49 PM 30.9111 -88.2803 105° East 461 531 41,000  Level Houston Center
Sat 05:06:51 PM 30.8703 -88.1061 105° East 465 535 41,000  Level Houston Center
Sat 05:07:53 PM 30.8389 -87.9628 104° East 458 527 41,000  Level Houston Center
Sat 05:08:54 PM 30.8056 -87.8197 105° East 459 528 41,000  Level Houston Center
Sat 05:09:56 PM 30.7714 -87.6739 105° East 460 529 41,000  Level Houston Center
Sat 05:10:46 PM 30.7406 -87.5594 107° East 458 527 41,000  Level Jacksonville Center
Sat 05:11:46 PM 30.6675 -87.4422 126° Southeast 450 518 41,000  Level Jacksonville Center
Sat 05:12:46 PM 30.5858 -87.3300 130° Southeast 450 518 41,000  Level Jacksonville Center
Sat 05:13:46 PM 30.5042 -87.2175 130° Southeast 450 518 41,000  Level Jacksonville Center
Sat 05:14:46 PM 30.4203 -87.1053 131° Southeast 450 518 41,000  Level Jacksonville Center
Sat 05:15:46 PM 30.3361 -86.9933 131° Southeast 450 518 41,000  Level Jacksonville Center
Sat 05:16:46 PM 30.2442 -86.8717 131° Southeast 450 518 41,000  Level Jacksonville Center
Sat 05:17:46 PM 30.1619 -86.7578 130° Southeast 450 518 41,000  Level Jacksonville Center
Sat 05:18:46 PM 30.1094 -86.6261 115° Southeast 455 524 41,000  Level Jacksonville Center
Sat 05:19:46 PM 30.0572 -86.4897 114° Southeast 455 524 41,000  Level Jacksonville Center
Sat 05:20:46 PM 30.0083 -86.3633 114° Southeast 444 511 41,000  Level Jacksonville Center
Sat 05:21:46 PM 29.9617 -86.2369 113° Southeast 434 499 41,000  Level Jacksonville Center
Sat 05:22:46 PM 29.9169 -86.1108 112° Southeast 424 488 41,000  Level Jacksonville Center
Sat 05:23:46 PM 29.8700 -85.9847 113° Southeast 419 482 41,000  Level Jacksonville Center
Sat 05:24:46 PM 29.8247 -85.8636 113° Southeast 419 482 41,000  Level Jacksonville Center
Sat 05:25:46 PM 29.7836 -85.7497 113° Southeast 425 489 41,000  Level Jacksonville Center
Sat 05:26:46 PM 29.7383 -85.6242 113° Southeast 425 489 41,000  Level Jacksonville Center
Sat 05:27:46 PM 29.6950 -85.5008 112° Southeast 420 483 41,000  Level Jacksonville Center
Sat 05:28:46 PM 29.6514 -85.3778 112° Southeast 420 483 41,000  Level Jacksonville Center
Sat 05:29:46 PM 29.5994 -85.2594 117° Southeast 420 483 41,000  Level Jacksonville Center
Sat 05:30:46 PM 29.5136 -85.1669 137° Southeast 410 472 41,000  Level Jacksonville Center
Sat 05:31:46 PM 29.4253 -85.0767 138° Southeast 416 479 41,000  Level Jacksonville Center
Sat 05:32:46 PM 29.3328 -84.9889 140° Southeast 422 486 41,000  Level Jacksonville Center
Sat 05:33:46 PM 29.2444 -84.9036 140° Southeast 427 491 41,000  Level Jacksonville Center
Sat 05:34:46 PM 29.1542 -84.8114 138° Southeast 427 491 41,000  Level Jacksonville Center
Sat 05:35:46 PM 29.0572 -84.7169 140° Southeast 438 504 41,000  Level Jacksonville Center
Sat 05:36:46 PM 28.9647 -84.6272 140° Southeast 443 510 41,000  Level Jacksonville Center
Sat 05:38:18 PM 28.8172 -84.4792 139° Southeast 448 516 41,000  Level Miami Center
Sat 05:39:18 PM 28.7261 -84.3903 139° Southeast 448 516 41,000  Level Miami Center
Sat 05:40:18 PM 28.6389 -84.3064 140° Southeast 432 497 41,000  Level Miami Center
Sat 05:41:18 PM 28.5475 -84.2200 140° Southeast 432 497 41,000  Level Miami Center
Sat 05:42:18 PM 28.4603 -84.1342 139° Southeast 425 489 41,000 -150 Level Miami Center
Sat 05:43:18 PM 28.3728 -84.0483 139° Southeast 431 496 40,700 -909 Descending Miami Center
Sat 05:44:30 PM 28.2831 -83.9650 141° Southeast 426 490 39,000 -1,636 Descending Miami Center
Sat 05:45:30 PM 28.1856 -83.8717 140° Southeast 426 490 37,100 -1,800 Descending Miami Center
Sat 05:46:30 PM 28.0919 -83.7836 140° Southeast 431 496 35,400 -1,750 Descending Miami Center
Sat 05:47:30 PM 28.0022 -83.6958 139° Southeast 431 496 33,600 -1,700 Descending Miami Center
Sat 05:48:30 PM 27.9103 -83.6106 141° Southeast 430 495 32,000 -1,600 Descending Miami Center
Sat 05:49:30 PM 27.8186 -83.5206 139° Southeast 430 495 30,400 -1,550 Descending Miami Center
Sat 05:50:30 PM 27.7247 -83.4331 140° Southeast 430 495 28,900 -1,550 Descending Miami Center
Sat 05:51:30 PM 27.6328 -83.3436 139° Southeast 435 501 27,300 -1,500 Descending Miami Center
Sat 05:52:30 PM 27.5386 -83.2539 140° Southeast 435 501 25,900 -1,450 Descending Miami Center
Sat 05:53:30 PM 27.4486 -83.1694 140° Southeast 435 501 24,400 -1,500 Descending Miami Center
Sat 05:54:30 PM 27.3544 -83.0803 140° Southeast 435 501 22,900 -1,450 Descending Miami Center
Sat 05:55:30 PM 27.2683 -82.9986 140° Southeast 429 494 21,500 -1,400 Descending Miami Center
Sat 05:56:30 PM 27.1819 -82.9192 141° Southeast 423 487 20,100 -1,350 Descending Miami Center
Sat 05:57:30 PM 27.1017 -82.8428 140° Southeast 402 463 18,800 -1,450 Descending Miami Center
Sat 05:58:30 PM 27.0111 -82.7567 140° Southeast 388 447 17,200 -1,450 Descending Miami Center
Sat 05:59:30 PM 26.9286 -82.6803 140° Southeast 388 447 15,900 -1,300 Descending Miami Center
Sat 06:00:30 PM 26.8567 -82.6022 136° Southeast 382 440 14,600 -1,150 Descending Miami Center
Sat 06:01:30 PM 26.7903 -82.5386 139° Southeast 368 423 13,600 -1,100 Descending Miami Center
Sat 06:02:30 PM 26.7222 -82.4656 136° Southeast 353 406 12,400 -1,300 Descending Miami Center
Sat 06:03:30 PM 26.6419 -82.3828 137° Southeast 358 412 11,000 -1,150 Descending Miami Center
Sat 06:04:30 PM 26.5731 -82.3283 145° Southeast 329 379 10,100 -1,200 Descending Miami Center
Sat 06:05:30 PM 26.5039 -82.2789 147° Southeast 305 351 8,600 -1,500 Descending Miami Center
Sat 06:06:30 PM 26.4347 -82.2292 147° Southeast 300 345 7,100 -1,050 Descending Miami Center
Sat 06:07:30 PM 26.3700 -82.1775 144° Southeast 289 333 6,500 -1,050 Descending Miami Center
Sat 06:08:30 PM 26.3286 -82.1039 122° Southeast 272 313 5,000 -1,500 Descending Miami Center
Sat 06:10:00 PM 26.1671 -82.0336 149° Southeast  Level FlightAware Approximate
Sat 06:17:00 PM 26.1524 -81.7756 66° East  Level Estimated
Sat 06:18:00 PM 26.1524 -81.7756 66° East  Level Estimated
Sat 06:19:00 PM 26.1524 -81.7756 66° East  Level Estimated
Sat 06:20:00 PM 26.1524 -81.7756 66° East  Level Estimated
Sat 06:21:00 PM 26.1524 -81.7756 66° East  Level Estimated
Sat 06:22:00 PM 26.1524 -81.7756 66° East  Level Estimated
Sat 06:23:00 PM 26.1524 -81.7756 66° East  Level Estimated
Sat 06:24:00 PM 26.1524 -81.7756 66° East  Level Estimated
Sat 06:25:00 PM 26.1524 -81.7756 66° East  Level Estimated

Login

Don't have an account? Register now (free) for customized features, flight alerts, and more!